createdAt,value
2019-04-09T00:00:29.022Z,7.10
2019-04-09T00:02:59.156Z,7.80
2019-04-09T00:05:27.687Z,16.73
2019-04-09T00:08:01.783Z,17.73
2019-04-09T00:10:26.588Z,11.10
2019-04-09T00:12:55.038Z,9.20
2019-04-09T00:15:23.583Z,8.97
2019-04-09T00:17:52.195Z,7.60
2019-04-09T00:20:20.765Z,7.70
2019-04-09T00:22:49.236Z,8.80
2019-04-09T00:25:17.923Z,10.87
2019-04-09T00:27:47.284Z,10.13
2019-04-09T00:30:17.143Z,9.30
2019-04-09T00:32:45.668Z,7.93
2019-04-09T00:35:14.160Z,7.73
2019-04-09T00:37:42.636Z,7.77
2019-04-09T00:40:11.090Z,12.00
2019-04-09T00:42:39.554Z,6.80
2019-04-09T00:45:08.085Z,7.10
2019-04-09T00:47:36.570Z,7.33
2019-04-09T00:50:08.417Z,7.40
2019-04-09T00:52:36.948Z,6.80
2019-04-09T00:55:07.148Z,7.37
2019-04-09T00:57:36.587Z,7.80
2019-04-09T01:00:06.542Z,6.60
2019-04-09T01:02:35.019Z,6.50
2019-04-09T01:05:04.637Z,14.60
2019-04-09T01:07:33.189Z,8.13
2019-04-09T01:10:01.938Z,8.37
2019-04-09T01:12:30.589Z,7.30
2019-04-09T01:14:59.274Z,7.43
2019-04-09T01:17:29.693Z,7.37
2019-04-09T01:19:58.583Z,7.00
2019-04-09T01:22:27.105Z,7.13
2019-04-09T01:24:57.645Z,7.43
2019-04-09T01:27:28.827Z,6.83
2019-04-09T01:29:59.136Z,7.20
2019-04-09T01:32:45.264Z,7.47
2019-04-09T01:35:18.355Z,5.93
2019-04-09T01:37:57.716Z,5.50
2019-04-09T01:40:56.648Z,5.63
2019-04-09T01:46:08.913Z,6.10
2019-04-09T01:48:42.661Z,6.37
2019-04-09T01:51:12.934Z,6.47
2019-04-09T01:53:51.617Z,6.30
2019-04-09T01:56:38.607Z,5.53
2019-04-09T01:59:14.759Z,6.90
2019-04-09T02:01:44.955Z,6.50
2019-04-09T02:04:31.287Z,6.80
2019-04-09T02:07:19.289Z,6.27
2019-04-09T02:09:58.443Z,6.40
2019-04-09T02:12:37.352Z,5.87
2019-04-09T02:15:08.901Z,6.10
2019-04-09T02:17:51.090Z,5.80
2019-04-09T02:20:27.481Z,5.90
2019-04-09T02:23:13.646Z,7.03
2019-04-09T02:26:01.953Z,6.37
2019-04-09T02:28:41.805Z,6.33
2019-04-09T02:31:12.510Z,5.47
2019-04-09T02:33:58.706Z,6.80
2019-04-09T02:36:30.249Z,5.90
2019-04-09T02:39:10.582Z,5.57
2019-04-09T02:41:44.207Z,6.60
2019-04-09T02:44:33.068Z,6.23
2019-04-09T02:47:12.041Z,6.17
2019-04-09T02:49:57.163Z,6.63
2019-04-09T02:52:30.357Z,6.37
2019-04-09T02:55:15.131Z,6.20
2019-04-09T02:57:50.246Z,7.00
2019-04-09T03:00:19.891Z,5.97
2019-04-09T03:02:50.450Z,5.97
2019-04-09T03:05:38.610Z,5.60
2019-04-09T03:08:08.767Z,6.37
2019-04-09T03:10:47.618Z,5.73
2019-04-09T03:13:33.767Z,6.20
2019-04-09T03:16:04.797Z,5.80
2019-04-09T03:18:41.832Z,6.33
2019-04-09T03:21:15.291Z,6.20
2019-04-09T03:23:45.506Z,6.37
2019-04-09T03:26:18.457Z,6.33
2019-04-09T03:28:49.265Z,5.90
2019-04-09T03:31:32.558Z,5.93
2019-04-09T03:34:15.788Z,6.87
2019-04-09T03:36:46.074Z,5.80
2019-04-09T03:39:22.128Z,6.03
2019-04-09T03:42:08.188Z,5.70
2019-04-09T03:44:41.947Z,6.07
2019-04-09T03:47:40.667Z,6.27
2019-04-09T03:50:33.398Z,5.63
2019-04-09T03:53:19.214Z,5.80
2019-04-09T03:56:02.901Z,5.40
2019-04-09T03:58:35.682Z,6.00
2019-04-09T04:01:20.895Z,6.60
2019-04-09T04:03:52.457Z,5.50
2019-04-09T04:06:22.736Z,7.33
2019-04-09T04:08:52.812Z,5.40
2019-04-09T04:11:29.691Z,7.08
2019-04-09T04:14:05.606Z,5.43
2019-04-09T04:16:38.472Z,5.70
2019-04-09T04:19:21.401Z,5.80
2019-04-09T04:22:00.326Z,6.07
2019-04-09T04:24:36.905Z,7.10
2019-04-09T04:27:07.327Z,6.42
2019-04-09T04:29:37.488Z,6.50
2019-04-09T04:32:07.585Z,6.53
2019-04-09T04:34:38.748Z,6.33
2019-04-09T04:37:21.076Z,5.83
2019-04-09T04:39:53.974Z,5.90
2019-04-09T04:42:27.786Z,6.42
2019-04-09T04:45:03.805Z,6.20
2019-04-09T04:47:36.648Z,7.55
2019-04-09T04:50:09.902Z,6.20
2019-04-09T04:52:48.554Z,6.03
2019-04-09T04:56:01.545Z,5.90
2019-04-09T04:58:41.335Z,5.90
2019-04-09T05:01:18.200Z,5.20
2019-04-09T05:03:55.012Z,7.60
2019-04-09T05:06:41.526Z,8.10
2019-04-09T05:09:26.781Z,6.20
2019-04-09T05:12:05.638Z,6.10
2019-04-09T05:14:35.898Z,6.22
2019-04-09T05:17:09.931Z,6.20
2019-04-09T05:19:46.719Z,6.37
2019-04-09T05:22:36.010Z,5.80
2019-04-09T05:25:23.076Z,6.30
2019-04-09T05:28:10.051Z,5.70
2019-04-09T05:30:48.678Z,5.93
2019-04-09T06:11:03.375Z,6.47
2019-04-09T06:22:43.565Z,7.30
2019-04-09T06:25:18.215Z,6.13
2019-04-09T06:27:49.729Z,6.50
2019-04-09T06:31:10.333Z,6.27
2019-04-09T06:33:34.392Z,6.97
2019-04-09T06:36:07.367Z,7.27
2019-04-09T06:38:54.389Z,6.30
2019-04-09T06:41:29.102Z,7.77
2019-04-09T06:44:00.234Z,6.10
2019-04-09T06:46:36.079Z,6.63
2019-04-09T06:49:07.952Z,7.63
2019-04-09T06:51:47.898Z,6.63
2019-04-09T06:54:26.439Z,8.10
2019-04-09T06:57:11.301Z,8.20
2019-04-09T06:59:42.139Z,6.80
2019-04-09T07:02:26.191Z,7.23
2019-04-09T07:04:58.527Z,6.67
2019-04-09T07:07:54.349Z,7.20
2019-04-09T07:10:32.487Z,7.70
2019-04-09T07:13:05.289Z,8.47
2019-04-09T07:15:43.879Z,7.90
2019-04-09T07:20:29.119Z,7.80
2019-04-09T07:21:38.767Z,7.27
2019-04-09T07:24:11.838Z,8.00
2019-04-09T07:26:54.908Z,7.60
2019-04-09T07:29:43.842Z,8.10
2019-04-09T07:32:05.944Z,7.23
2019-04-09T07:34:54.049Z,8.67
2019-04-09T07:37:45.919Z,7.30
2019-04-09T07:40:36.455Z,7.80
2019-04-09T07:43:20.045Z,7.43
2019-04-09T07:46:04.269Z,7.83
2019-04-09T07:48:34.699Z,8.27
2019-04-09T07:51:16.224Z,7.97
2019-04-09T07:54:04.582Z,8.10
2019-04-09T07:56:39.595Z,8.00
2019-04-09T07:59:27.186Z,8.63
2019-04-09T08:01:58.654Z,7.90
2019-04-09T08:04:48.701Z,8.20
2019-04-09T08:07:24.972Z,8.63
2019-04-09T08:10:01.932Z,9.53
2019-04-09T08:12:35.469Z,8.60
2019-04-09T08:15:08.094Z,8.53
2019-04-09T08:18:03.112Z,8.43
2019-04-09T08:38:10.052Z,8.80
2019-04-09T08:53:51.464Z,7.83
2019-04-09T08:56:23.121Z,7.90
2019-04-09T08:59:11.327Z,7.93
2019-04-09T09:02:20.346Z,7.63
2019-04-09T09:04:54.026Z,8.40
2019-04-09T09:07:29.190Z,8.87
2019-04-09T09:10:01.558Z,8.57
2019-04-09T09:12:44.861Z,8.70
2019-04-09T09:15:39.380Z,8.50
2019-04-09T09:18:29.868Z,8.30
2019-04-09T09:21:12.880Z,8.10
2019-04-09T09:23:48.915Z,8.13
2019-04-09T09:26:38.595Z,8.90
2019-04-09T09:29:28.219Z,7.80
2019-04-09T09:32:05.913Z,8.37
2019-04-09T09:37:53.741Z,9.20
2019-04-09T09:40:40.646Z,8.07
2019-04-09T09:43:19.202Z,9.27
2019-04-09T09:45:51.207Z,8.70
2019-04-09T09:48:34.930Z,8.53
2019-04-09T09:51:22.128Z,8.10
2019-04-09T09:54:06.113Z,8.60
2019-04-09T09:56:54.715Z,9.37
2019-04-09T09:59:41.650Z,8.97
2019-04-09T10:02:18.858Z,9.17
2019-04-09T10:04:54.340Z,9.07
2019-04-09T10:07:49.511Z,9.17
2019-04-09T10:10:15.084Z,8.93
2019-04-09T10:12:57.273Z,9.50
2019-04-09T10:15:27.758Z,9.60
2019-04-09T10:18:05.175Z,9.47
2019-04-09T10:20:44.946Z,8.43
2019-04-09T10:23:15.293Z,9.70
2019-04-09T10:26:07.397Z,8.43
2019-04-09T10:28:46.013Z,9.03
2019-04-09T10:31:23.786Z,9.50
2019-04-09T10:33:53.236Z,9.47
2019-04-09T10:36:29.020Z,9.00
2019-04-09T10:39:11.736Z,10.50
2019-04-09T10:41:48.231Z,9.70
2019-04-09T10:44:20.717Z,9.93
2019-04-09T10:46:57.176Z,10.10
2019-04-09T10:49:42.189Z,9.33
2019-04-09T10:52:44.020Z,8.70
2019-04-09T10:56:14.204Z,9.00
2019-04-09T10:58:46.241Z,9.30
2019-04-09T11:01:35.389Z,9.40
2019-04-09T11:04:21.105Z,8.80
2019-04-09T11:06:51.583Z,8.73
2019-04-09T11:09:26.819Z,8.63
2019-04-09T11:11:57.624Z,9.60
2019-04-09T11:14:32.776Z,7.60
2019-04-09T11:17:16.892Z,7.63
2019-04-09T11:20:00.285Z,8.80
2019-04-09T11:22:34.417Z,9.13
2019-04-09T11:25:08.217Z,8.70
2019-04-09T11:27:39.615Z,9.33
2019-04-09T11:30:12.083Z,8.27
2019-04-09T11:32:58.026Z,8.27
2019-04-09T11:35:28.507Z,8.07
2019-04-09T11:38:01.427Z,8.47
2019-04-09T11:40:41.079Z,8.27
2019-04-09T11:43:14.800Z,7.90
2019-04-09T11:45:50.166Z,8.23
2019-04-09T11:48:36.719Z,8.43
2019-04-09T11:51:13.098Z,8.77
2019-04-09T11:53:50.077Z,9.00
2019-04-09T11:56:29.102Z,8.97
2019-04-09T11:59:23.318Z,8.67
2019-04-09T12:01:58.407Z,8.47
2019-04-09T12:04:33.944Z,9.00
2019-04-09T12:07:04.220Z,8.10
2019-04-09T12:09:35.350Z,8.17
2019-04-09T12:12:05.731Z,7.30
2019-04-09T12:14:52.367Z,8.30
2019-04-09T12:17:28.881Z,8.63
2019-04-09T12:20:18.693Z,9.00
2019-04-09T12:22:57.785Z,8.47
2019-04-09T12:25:40.010Z,8.47
2019-04-09T12:28:12.955Z,8.90
2019-04-09T12:31:03.885Z,8.70
2019-04-09T12:33:45.975Z,9.00
2019-04-09T12:36:24.706Z,8.33
2019-04-09T12:39:11.698Z,8.70
2019-04-09T12:41:54.620Z,8.00
2019-04-09T12:44:31.835Z,7.93
2019-04-09T12:47:15.773Z,8.57
2019-04-09T12:50:12.535Z,9.00
2019-04-09T12:52:54.939Z,8.87
2019-04-09T12:55:25.290Z,9.90
2019-04-09T12:57:55.477Z,9.20
2019-04-09T13:00:28.768Z,9.17
2019-04-09T13:03:20.963Z,9.30
2019-04-09T13:05:51.459Z,9.00
2019-04-09T13:08:40.140Z,9.83
2019-04-09T13:11:16.528Z,10.23
2019-04-09T13:13:48.136Z,9.30
2019-04-09T13:16:27.458Z,9.70
2019-04-09T13:19:00.742Z,9.50
2019-04-09T13:22:04.297Z,9.60
2019-04-09T13:24:51.009Z,9.83
2019-04-09T13:27:34.607Z,8.60
2019-04-09T13:30:11.862Z,8.73
2019-04-09T13:32:59.934Z,9.63
2019-04-09T13:36:02.934Z,9.60
2019-04-09T13:38:49.575Z,9.57
2019-04-09T13:41:36.065Z,9.00
2019-04-09T13:44:13.324Z,9.50
2019-04-09T13:46:44.591Z,9.50
2019-04-09T13:49:25.224Z,10.43
2019-04-09T13:52:02.546Z,9.50
2019-04-09T13:54:31.309Z,9.20
2019-04-09T13:56:59.882Z,10.37
2019-04-09T13:59:28.471Z,8.80
2019-04-09T14:02:03.304Z,9.30
2019-04-09T14:04:42.222Z,9.80
2019-04-09T14:07:12.443Z,8.80
2019-04-09T14:09:41.781Z,9.57
2019-04-09T14:12:10.635Z,9.30
2019-04-09T14:14:39.150Z,11.30
2019-04-09T14:17:07.641Z,9.33
2019-04-09T14:19:48.767Z,9.17
2019-04-09T14:22:07.247Z,9.43
2019-04-09T14:24:36.762Z,8.77
2019-04-09T14:27:05.763Z,8.73
2019-04-09T14:29:34.686Z,9.77
2019-04-09T14:32:05.891Z,9.73
2019-04-09T14:34:35.043Z,9.30
2019-04-09T14:37:04.149Z,9.10
2019-04-09T14:39:32.736Z,9.20
2019-04-09T14:42:02.210Z,8.73
2019-04-09T14:44:34.175Z,10.27
2019-04-09T14:47:04.753Z,8.20
2019-04-09T14:49:33.488Z,9.30
2019-04-09T14:52:09.905Z,8.97
2019-04-09T14:54:39.689Z,8.70
2019-04-09T14:57:08.398Z,8.57
2019-04-09T14:59:38.045Z,9.80
2019-04-09T15:02:07.305Z,9.30
2019-04-09T15:04:41.614Z,8.90
2019-04-09T15:07:10.568Z,10.10
2019-04-09T15:09:39.363Z,9.60
2019-04-09T15:12:08.889Z,10.33
2019-04-09T15:14:39.096Z,8.90
2019-04-09T15:17:07.661Z,9.30
2019-04-09T15:19:37.396Z,8.07
2019-04-09T15:22:07.678Z,9.30
2019-04-09T15:24:36.335Z,8.93
2019-04-09T15:27:05.218Z,10.27
2019-04-09T15:29:33.823Z,9.57
2019-04-09T15:32:02.787Z,8.20
2019-04-09T15:34:33.719Z,8.50
2019-04-09T15:37:03.234Z,9.37
2019-04-09T15:39:31.824Z,9.10
2019-04-09T15:42:00.485Z,8.87
2019-04-09T15:44:29.501Z,8.63
2019-04-09T15:46:58.135Z,9.80
2019-04-09T15:49:26.654Z,8.87
2019-04-09T15:51:55.483Z,8.27
2019-04-09T15:54:24.263Z,9.07
2019-04-09T15:56:52.983Z,9.00
2019-04-09T15:59:21.823Z,8.03
2019-04-09T16:01:50.459Z,8.60
2019-04-09T16:04:19.462Z,9.17
2019-04-09T16:06:48.731Z,9.93
2019-04-09T16:09:19.326Z,9.93
2019-04-09T16:11:48.431Z,10.03
2019-04-09T16:14:20.189Z,9.03
2019-04-09T16:16:47.894Z,9.67
2019-04-09T16:19:19.047Z,10.20
2019-04-09T16:21:48.814Z,9.33
2019-04-09T16:24:21.434Z,9.33
2019-04-09T16:26:54.625Z,9.20
2019-04-09T16:29:24.048Z,9.20
2019-04-09T16:31:53.156Z,9.77
2019-04-09T16:34:34.428Z,9.27
2019-04-09T16:37:17.599Z,9.57
2019-04-09T16:55:08.560Z,9.10
2019-04-09T16:57:37.894Z,9.43
2019-04-09T17:00:33.650Z,8.50
2019-04-09T17:06:48.364Z,8.80
2019-04-09T17:09:47.673Z,8.40
2019-04-09T17:25:29.219Z,8.80
2019-04-09T17:31:23.038Z,8.40
2019-04-09T17:33:51.806Z,8.07
2019-04-09T17:36:38.888Z,9.47
2019-04-09T17:39:30.647Z,8.60
2019-04-09T17:42:14.448Z,9.13
2019-04-09T17:47:54.734Z,8.67
2019-04-09T17:50:28.444Z,7.70
2019-04-09T17:56:21.525Z,8.67
2019-04-09T18:13:09.570Z,9.20
2019-04-09T18:28:54.305Z,8.07
2019-04-09T18:34:07.081Z,8.73
2019-04-09T19:06:05.526Z,8.10
2019-04-09T19:08:47.688Z,8.53
2019-04-09T19:15:30.741Z,8.80
2019-04-09T19:32:25.231Z,8.50
2019-04-09T19:35:40.297Z,8.00
2019-04-09T19:39:03.123Z,9.50
2019-04-09T19:41:46.206Z,8.07
2019-04-09T19:50:43.878Z,7.63
2019-04-09T19:54:02.988Z,8.57
2019-04-09T19:56:42.210Z,7.50
2019-04-09T19:59:11.143Z,7.57
2019-04-09T20:04:51.751Z,7.83
2019-04-09T20:14:08.420Z,7.43
2019-04-09T20:19:09.106Z,7.13
2019-04-09T20:27:43.399Z,8.60
2019-04-09T20:30:17.043Z,8.07
2019-04-09T20:32:46.553Z,8.93
2019-04-09T20:35:16.519Z,8.27
2019-04-09T20:37:58.346Z,8.07
2019-04-09T20:43:46.986Z,8.33
2019-04-09T20:46:27.607Z,8.33
2019-04-09T20:48:57.630Z,8.23
2019-04-09T20:51:28.069Z,10.23
2019-04-09T20:54:00.912Z,8.50
2019-04-09T20:56:31.088Z,7.90
2019-04-09T20:59:44.480Z,8.90
2019-04-09T21:02:11.647Z,8.90
2019-04-09T21:04:41.507Z,9.50
2019-04-09T21:07:10.061Z,8.67
2019-04-09T21:09:39.348Z,8.40
2019-04-09T21:12:17.210Z,8.13
2019-04-09T21:14:46.860Z,7.60
2019-04-09T21:17:20.120Z,8.83
2019-04-09T21:19:46.854Z,8.50
2019-04-09T21:22:16.532Z,7.37
2019-04-09T21:24:45.923Z,8.33
2019-04-09T21:27:16.665Z,8.20
2019-04-09T21:29:46.830Z,7.37
2019-04-09T21:32:19.150Z,8.10
2019-04-09T21:34:52.855Z,6.70
2019-04-09T21:37:22.009Z,7.07
2019-04-09T21:39:51.776Z,5.90
2019-04-09T21:42:20.393Z,7.03
2019-04-09T21:44:49.098Z,6.40
2019-04-09T21:47:18.434Z,6.50
2019-04-09T21:49:46.971Z,6.77
2019-04-09T21:52:15.474Z,6.60
2019-04-09T21:54:44.171Z,6.47
2019-04-09T21:57:12.792Z,6.47
2019-04-09T22:03:44.950Z,6.27
2019-04-09T22:06:23.772Z,5.80
2019-04-09T22:11:32.747Z,5.73
2019-04-09T22:14:19.630Z,5.60
2019-04-09T22:17:06.377Z,5.30
2019-04-09T22:19:42.924Z,5.70
2019-04-09T22:22:27.268Z,5.80
2019-04-09T22:25:12.284Z,5.37
2019-04-09T22:27:40.903Z,5.77
2019-04-09T22:30:09.969Z,5.10
2019-04-09T22:33:06.949Z,4.60
2019-04-09T22:35:43.710Z,5.03
2019-04-09T22:38:30.951Z,5.60
2019-04-09T22:41:17.406Z,5.37
2019-04-09T22:43:47.571Z,5.10
2019-04-09T22:49:51.176Z,4.50
2019-04-09T22:52:01.446Z,5.13
2019-04-09T22:54:31.583Z,5.20
2019-04-09T22:57:01.844Z,5.57
2019-04-09T23:02:42.708Z,4.72
2019-04-09T23:08:34.095Z,5.27
2019-04-09T23:11:04.699Z,4.83
2019-04-09T23:16:33.564Z,4.50
2019-04-09T23:22:30.400Z,5.03
2019-04-09T23:25:14.761Z,5.20
2019-04-09T23:27:32.622Z,5.13
2019-04-09T23:33:24.765Z,4.77
2019-04-09T23:35:57.356Z,5.10
2019-04-09T23:38:26.436Z,4.20
2019-04-09T23:40:55.536Z,4.90
2019-04-09T23:43:27.978Z,3.70
2019-04-09T23:48:32.010Z,4.85
2019-04-09T23:51:07.386Z,3.98
2019-04-09T23:53:37.710Z,3.75
